Observation data for Memphis on 08/14/2020      Previous  Date  Next       Current Mesonet Observations  Soil Data  Daily Summary Page  Observations in Plain Language
KMES 140500Z 36010KT 30/20 A2988 RMK A01 T02960198  RH  059%=      5-min Rain = 0
KMES 140505Z 36010KT 30/20 A2988 RMK A01 T02950200  RH  060%=      5-min Rain = 0
KMES 140510Z 35011KT 30/20 A2988 RMK A01 T02950203  RH  061%=      5-min Rain = 0
KMES 140515Z 35012KT 30/21 A2988 RMK A01 T02960206  RH  062%=      5-min Rain = 0
KMES 140520Z 35011KT 30/21 A2988 RMK A01 T02950207  RH  063%=      5-min Rain = 0
KMES 140525Z 35010KT 30/21 A2988 RMK A01 T02950208  RH  063%=      5-min Rain = 0
KMES 140530Z 36011KT 30/21 A2988 RMK A01 T02950209  RH  064%=      5-min Rain = 0
KMES 140535Z 36010KT 29/21 A2988 RMK A01 T02940210  RH  064%=      5-min Rain = 0
KMES 140540Z 35011KT 29/21 A2988 RMK A01 T02930210  RH  065%=      5-min Rain = 0
KMES 140545Z 35010KT 29/21 A2988 RMK A01 T02920210  RH  065%=      5-min Rain = 0
KMES 140550Z 35009KT 29/21 A2988 RMK A01 T02910210  RH  065%=      5-min Rain = 0
KMES 140555Z 35010KT 29/21 A2988 RMK A01 T02900210  RH  066%=      5-min Rain = 0
KMES 140600Z 34011KT 29/21 A2988 RMK A01 T02890211  RH  067%=      5-min Rain = 0
KMES 140605Z 34010KT 29/21 A2988 RMK A01 T02880211  RH  067%=      5-min Rain = 0
KMES 140610Z 35010KT 29/21 A2988 RMK A01 T02860210  RH  068%=      5-min Rain = 0
KMES 140615Z 35010KT 29/21 A2988 RMK A01 T02850210  RH  068%=      5-min Rain = 0
KMES 140620Z 34009KT 28/21 A2988 RMK A01 T02840210  RH  068%=      5-min Rain = 0
KMES 140625Z 34008KT 28/21 A2988 RMK A01 T02830210  RH  069%=      5-min Rain = 0
KMES 140630Z 34008KT 28/21 A2988 RMK A01 T02820210  RH  069%=      5-min Rain = 0
KMES 140635Z 34007KT 28/21 A2988 RMK A01 T02820209  RH  069%=      5-min Rain = 0
KMES 140640Z 35006KT 28/21 A2988 RMK A01 T02800208  RH  069%=      5-min Rain = 0
KMES 140645Z 35006KT 28/21 A2988 RMK A01 T02790208  RH  069%=      5-min Rain = 0
KMES 140650Z 35006KT 28/21 A2988 RMK A01 T02780208  RH  069%=      5-min Rain = 0
KMES 140655Z 34007KT 28/21 A2988 RMK A01 T02780208  RH  070%=      5-min Rain = 0
KMES 140700Z 34008KT 28/21 A2988 RMK A01 T02780208  RH  070%=      5-min Rain = 0
KMES 140705Z 33009G14KT 28/21 A2988 RMK A01 T02780208  RH  070%=      5-min Rain = 0
KMES 140710Z 33010G15KT 28/21 A2988 RMK A01 T02780209  RH  070%=      5-min Rain = 0
KMES 140715Z 33008KT 28/21 A2988 RMK A01 T02770209  RH  071%=      5-min Rain = 0
KMES 140720Z 33008KT 28/21 A2988 RMK A01 T02760209  RH  071%=      5-min Rain = 0
KMES 140725Z 33009G14KT 28/21 A2988 RMK A01 T02750208  RH  071%=      5-min Rain = 0
KMES 140730Z 33010KT 28/21 A2988 RMK A01 T02750208  RH  071%=      5-min Rain = 0
KMES 140735Z 34010KT 27/21 A2988 RMK A01 T02740208  RH  071%=      5-min Rain = 0
KMES 140740Z 34007G12KT 27/21 A2988 RMK A01 T02740208  RH  071%=      5-min Rain = 0
KMES 140745Z 32005KT 27/21 A2988 RMK A01 T02730208  RH  072%=      5-min Rain = 0
KMES 140750Z 28002KT 27/21 A2989 RMK A01 T02730209  RH  072%=      5-min Rain = 0
KMES 140755Z 31003KT 27/21 A2989 RMK A01 T02720209  RH  073%=      5-min Rain = 0
KMES 140800Z 32005KT 27/21 A2988 RMK A01 T02710210  RH  074%=      5-min Rain = 0
KMES 140805Z 32004KT 27/21 A2988 RMK A01 T02700210  RH  074%=      5-min Rain = 0
KMES 140810Z 32005KT 27/21 A2988 RMK A01 T02690211  RH  075%=      5-min Rain = 0
KMES 140815Z 33006KT 27/21 A2988 RMK A01 T02670211  RH  076%=      5-min Rain = 0
KMES 140820Z 32007KT 27/21 A2988 RMK A01 T02660211  RH  076%=      5-min Rain = 0
KMES 140825Z 32007KT 27/21 A2988 RMK A01 T02650211  RH  077%=      5-min Rain = 0
KMES 140830Z 32007KT 26/21 A2988 RMK A01 T02640211  RH  077%=      5-min Rain = 0
KMES 140835Z 32006KT 26/21 A2988 RMK A01 T02630211  RH  078%=      5-min Rain = 0
KMES 140840Z 32006KT 26/21 A2988 RMK A01 T02620211  RH  078%=      5-min Rain = 0
KMES 140845Z 31005KT 26/21 A2988 RMK A01 T02620211  RH  078%=      5-min Rain = 0
KMES 140850Z 30004KT 26/21 A2988 RMK A01 T02610211  RH  079%=      5-min Rain = 0
KMES 140855Z 23003KT 26/21 A2988 RMK A01 T02600211  RH  079%=      5-min Rain = 0
KMES 140900Z 24004KT 26/21 A2988 RMK A01 T02590210  RH  079%=      5-min Rain = 0
KMES 140905Z 26003KT 26/21 A2988 RMK A01 T02580211  RH  080%=      5-min Rain = 0
KMES 140910Z 22002KT 26/21 A2989 RMK A01 T02590212  RH  080%=      5-min Rain = 0
KMES 140915Z 19003KT 26/21 A2989 RMK A01 T02580211  RH  080%=      5-min Rain = 0
KMES 140920Z 20002KT 26/21 A2989 RMK A01 T02580211  RH  080%=      5-min Rain = 0
KMES 140925Z 21001KT 26/21 A2989 RMK A01 T02570210  RH  080%=      5-min Rain = 0
KMES 140930Z 21002KT 26/21 A2989 RMK A01 T02550210  RH  081%=      5-min Rain = 0
KMES 140935Z 21003KT 25/21 A2989 RMK A01 T02540210  RH  081%=      5-min Rain = 0
KMES 140940Z 25002KT 25/21 A2988 RMK A01 T02540210  RH  082%=      5-min Rain = 0
KMES 140945Z 26003KT 25/21 A2989 RMK A01 T02540211  RH  082%=      5-min Rain = 0
KMES 140950Z 30002KT 25/21 A2989 RMK A01 T02540211  RH  082%=      5-min Rain = 0
KMES 140955Z 31004KT 25/21 A2989 RMK A01 T02520208  RH  082%=      5-min Rain = 0
KMES 141000Z 29003KT 25/21 A2989 RMK A01 T02520210  RH  082%=      5-min Rain = 0
KMES 141005Z 27003KT 25/21 A2989 RMK A01 T02510209  RH  082%=      5-min Rain = 0
KMES 141010Z 30004KT 25/21 A2989 RMK A01 T02490209  RH  083%=      5-min Rain = 0
KMES 141015Z 31004KT 25/21 A2989 RMK A01 T02490210  RH  084%=      5-min Rain = 0
KMES 141020Z 31004KT 25/21 A2989 RMK A01 T02500210  RH  084%=      5-min Rain = 0
KMES 141025Z 31003KT 25/21 A2989 RMK A01 T02500210  RH  083%=      5-min Rain = 0
KMES 141030Z 30003KT 25/21 A2989 RMK A01 T02510210  RH  083%=      5-min Rain = 0
KMES 141035Z 29003KT 25/21 A2989 RMK A01 T02500209  RH  083%=      5-min Rain = 0
KMES 141040Z 29003KT 25/21 A2989 RMK A01 T02490209  RH  084%=      5-min Rain = 0
KMES 141045Z 31003KT 25/21 A2989 RMK A01 T02470209  RH  084%=      5-min Rain = 0
KMES 141050Z 32004KT 25/21 A2989 RMK A01 T02470208  RH  084%=      5-min Rain = 0
KMES 141055Z 32003KT 24/21 A299 RMK A01 T02440206  RH  084%=      5-min Rain = 0
KMES 141100Z 31003KT 24/21 A299 RMK A01 T02430206  RH  085%=      5-min Rain = 0
KMES 141105Z 29002KT 24/21 A299 RMK A01 T02430206  RH  085%=      5-min Rain = 0
KMES 141110Z 31002KT 24/21 A299 RMK A01 T02430207  RH  085%=      5-min Rain = 0
KMES 141115Z 33001KT 24/20 A299 RMK A01 T02390202  RH  084%=      5-min Rain = 0
KMES 141120Z 32001KT 24/20 A299 RMK A01 T02350198  RH  084%=      5-min Rain = 0
KMES 141125Z 32002KT 23/20 A299 RMK A01 T02330198  RH  085%=      5-min Rain = 0
KMES 141130Z 33003KT 23/20 A299 RMK A01 T02310197  RH  086%=      5-min Rain = 0
KMES 141135Z 33003KT 23/20 A299 RMK A01 T02280195  RH  086%=      5-min Rain = 0
KMES 141140Z 32003KT 23/20 A299 RMK A01 T02270196  RH  088%=      5-min Rain = 0
KMES 141145Z 32004KT 23/20 A299 RMK A01 T02270196  RH  087%=      5-min Rain = 0
KMES 141150Z 32004KT 23/20 A299 RMK A01 T02260196  RH  088%=      5-min Rain = 0
KMES 141155Z 31004KT 23/20 A299 RMK A01 T02290202  RH  090%=      5-min Rain = 0
KMES 141200Z 30004KT 23/20 A299 RMK A01 T02320204  RH  089%=      5-min Rain = 0
KMES 141205Z 29004KT 23/20 A299 RMK A01 T02310204  RH  090%=      5-min Rain = 0
KMES 141210Z 31004KT 23/20 A299 RMK A01 T02310204  RH  090%=      5-min Rain = 0
KMES 141215Z 31004KT 23/21 A2991 RMK A01 T02310205  RH  090%=      5-min Rain = 0
KMES 141220Z 31004KT 23/21 A2991 RMK A01 T02320205  RH  090%=      5-min Rain = 0
KMES 141225Z 31004KT 23/21 A2991 RMK A01 T02330206  RH  090%=      5-min Rain = 0
KMES 141230Z 31003KT 23/21 A2991 RMK A01 T02330206  RH  090%=      5-min Rain = 0
KMES 141235Z 30004KT 23/21 A2991 RMK A01 T02330206  RH  090%=      5-min Rain = 0
KMES 141240Z 31003KT 23/21 A2991 RMK A01 T02330206  RH  090%=      5-min Rain = 0
KMES 141245Z 31004KT 23/21 A2991 RMK A01 T02340207  RH  090%=      5-min Rain = 0
KMES 141250Z 32003KT 24/21 A2991 RMK A01 T02360208  RH  089%=      5-min Rain = 0
KMES 141255Z 31004KT 24/21 A2991 RMK A01 T02390209  RH  089%=      5-min Rain = 0
KMES 141300Z 31003KT 24/21 A2991 RMK A01 T02420210  RH  088%=      5-min Rain = 0
KMES 141305Z 30003KT 24/21 A2991 RMK A01 T02440211  RH  087%=      5-min Rain = 0
KMES 141310Z 31003KT 25/21 A2991 RMK A01 T02450211  RH  086%=      5-min Rain = 0
KMES 141315Z 32003KT 25/21 A2991 RMK A01 T02460212  RH  086%=      5-min Rain = 0
KMES 141320Z 32004KT 25/21 A2992 RMK A01 T02490213  RH  085%=      5-min Rain = 0
KMES 141325Z 32004KT 25/21 A2992 RMK A01 T02530214  RH  084%=      5-min Rain = 0
KMES 141330Z 34004KT 26/22 A2993 RMK A01 T02570215  RH  083%=      5-min Rain = 0
KMES 141335Z 35003KT 26/22 A2993 RMK A01 T02600215  RH  082%=      5-min Rain = 0
KMES 141340Z 01001KT 26/22 A2993 RMK A01 T02640218  RH  081%=      5-min Rain = 0
KMES 141345Z 30000KT 27/22 A2993 RMK A01 T02690219  RH  079%=      5-min Rain = 0
KMES 141350Z 25001KT 27/22 A2993 RMK A01 T02730217  RH  076%=      5-min Rain = 0
KMES 141355Z 28001KT 27/22 A2993 RMK A01 T02730216  RH  075%=      5-min Rain = 0
KMES 141400Z 02002KT 28/22 A2993 RMK A01 T02760216  RH  075%=      5-min Rain = 0
KMES 141405Z 02002KT 28/22 A2993 RMK A01 T02790216  RH  073%=      5-min Rain = 0
KMES 141410Z 00001KT 29/22 A2993 RMK A01 T02850216  RH  071%=      5-min Rain = 0
KMES 141415Z 04002KT 29/21 A2993 RMK A01 T02870214  RH  069%=      5-min Rain = 0
KMES 141420Z 04002KT 29/21 A2993 RMK A01 T02900214  RH  068%=      5-min Rain = 0
KMES 141425Z 04002KT 29/21 A2993 RMK A01 T02930213  RH  066%=      5-min Rain = 0
KMES 141430Z 06003KT 30/21 A2993 RMK A01 T02960210  RH  064%=      5-min Rain = 0
KMES 141435Z 11002KT 30/21 A2993 RMK A01 T02980207  RH  062%=      5-min Rain = 0
KMES 141440Z 09003KT 30/21 A2992 RMK A01 T03010205  RH  060%=      5-min Rain = 0
KMES 141445Z 11003KT 31/21 A2993 RMK A01 T03050206  RH  059%=      5-min Rain = 0
KMES 141450Z 09002KT 31/21 A2993 RMK A01 T03070210  RH  060%=      5-min Rain = 0
KMES 141455Z 13004KT 31/21 A2993 RMK A01 T03060209  RH  060%=      5-min Rain = 0
KMES 141500Z 05003KT 31/21 A2993 RMK A01 T03080209  RH  059%=      5-min Rain = 0
KMES 141505Z 31001KT 31/21 A2993 RMK A01 T03140208  RH  057%=      5-min Rain = 0
KMES 141510Z 03002KT 32/20 A2993 RMK A01 T03160202  RH  054%=      5-min Rain = 0
KMES 141515Z 16001KT 32/20 A2993 RMK A01 T03150201  RH  054%=      5-min Rain = 0
KMES 141520Z 12002KT 32/21 A2993 RMK A01 T03150207  RH  056%=      5-min Rain = 0
KMES 141525Z 10002KT 32/21 A2993 RMK A01 T03200206  RH  054%=      5-min Rain = 0
KMES 141530Z 11002KT 32/21 A2993 RMK A01 T03230206  RH  053%=      5-min Rain = 0
KMES 141535Z 11001KT 33/21 A2993 RMK A01 T03270205  RH  052%=      5-min Rain = 0
KMES 141540Z 10001KT 33/20 A2993 RMK A01 T03270204  RH  052%=      5-min Rain = 0
KMES 141545Z 15003KT 32/21 A2993 RMK A01 T03230205  RH  053%=      5-min Rain = 0
KMES 141550Z 09003KT 32/20 A2993 RMK A01 T03240204  RH  052%=      5-min Rain = 0
KMES 141555Z 07003KT 33/20 A2993 RMK A01 T03290204  RH  051%=      5-min Rain = 0
KMES 141600Z 09005KT 33/20 A2993 RMK A01 T03300203  RH  050%=      5-min Rain = 0
KMES 141605Z 10004KT 33/20 A2993 RMK A01 T03300201  RH  049%=      5-min Rain = 0
KMES 141610Z 03003KT 33/19 A2993 RMK A01 T03320193  RH  047%=      5-min Rain = 0
KMES 141615Z 03001KT 34/20 A2993 RMK A01 T03370195  RH  046%=      5-min Rain = 0
KMES 141620Z 33002KT 34/19 A2993 RMK A01 T03380194  RH  046%=      5-min Rain = 0
KMES 141625Z 17001KT 34/20 A2993 RMK A01 T03380197  RH  046%=      5-min Rain = 0
KMES 141630Z 07002KT 34/20 A2993 RMK A01 T03440196  RH  044%=      5-min Rain = 0
KMES 141635Z 12004KT 35/19 A2993 RMK A01 T03480190  RH  042%=      5-min Rain = 0
KMES 141640Z 11004KT 35/19 A2993 RMK A01 T03490192  RH  042%=      5-min Rain = 0
KMES 141645Z 09004KT 35/19 A2993 RMK A01 T03520191  RH  041%=      5-min Rain = 0
KMES 141650Z 10004KT 35/19 A2993 RMK A01 T03520192  RH  041%=      5-min Rain = 0
KMES 141655Z 04004KT 35/19 A2993 RMK A01 T03530188  RH  040%=      5-min Rain = 0
KMES 141700Z 05007KT 36/19 A2993 RMK A01 T03570190  RH  040%=      5-min Rain = 0
KMES 141705Z 05007KT 36/19 A2993 RMK A01 T03560188  RH  039%=      5-min Rain = 0
KMES 141710Z 06007G12KT 36/19 A2993 RMK A01 T03600190  RH  039%=      5-min Rain = 0
KMES 141715Z 06007KT 36/18 A2993 RMK A01 T03620183  RH  037%=      5-min Rain = 0
KMES 141720Z 05004G9KT 36/19 A2993 RMK A01 T03600187  RH  038%=      5-min Rain = 0
KMES 141725Z 08005KT 36/18 A2993 RMK A01 T03640182  RH  036%=      5-min Rain = 0
KMES 141730Z 08005KT 37/18 A2993 RMK A01 T03650184  RH  037%=      5-min Rain = 0
KMES 141735Z 06005G10KT 36/19 A2993 RMK A01 T03630190  RH  038%=      5-min Rain = 0
KMES 141740Z 08006G11KT 37/18 A2993 RMK A01 T03680180  RH  035%=      5-min Rain = 0
KMES 141745Z 10003KT 37/18 A2993 RMK A01 T03700177  RH  034%=      5-min Rain = 0
KMES 141750Z 12007KT 37/17 A2993 RMK A01 T03710174  RH  033%=      5-min Rain = 0
KMES 141755Z 08004KT 37/17 A2992 RMK A01 T03680171  RH  033%=      5-min Rain = 0
KMES 141800Z 10004KT 37/18 A2992 RMK A01 T03710177  RH  034%=      5-min Rain = 0
KMES 141805Z 09007G12KT 37/18 A2992 RMK A01 T03720175  RH  033%=      5-min Rain = 0
KMES 141810Z 08007KT 37/17 A2992 RMK A01 T03730169  RH  032%=      5-min Rain = 0
KMES 141815Z 06006G11KT 38/17 A2992 RMK A01 T03780168  RH  031%=      5-min Rain = 0
KMES 141820Z 07007KT 38/17 A2992 RMK A01 T03780166  RH  030%=      5-min Rain = 0
KMES 141825Z 10004G9KT 38/17 A2992 RMK A01 T03770168  RH  031%=      5-min Rain = 0
KMES 141830Z 13005KT 38/17 A2992 RMK A01 T03780170  RH  031%=      5-min Rain = 0
KMES 141835Z 06006KT 38/17 A2992 RMK A01 T03830170  RH  030%=      5-min Rain = 0
KMES 141840Z 07004KT 38/16 A2992 RMK A01 T03830160  RH  028%=      5-min Rain = 0
KMES 141845Z 05006KT 38/15 A2991 RMK A01 T03840149  RH  026%=      5-min Rain = 0
KMES 141850Z 06005KT 39/15 A2991 RMK A01 T03890150  RH  026%=      5-min Rain = 0
KMES 141855Z 09003G9KT 39/16 A2991 RMK A01 T03890156  RH  027%=      5-min Rain = 0
KMES 141900Z 09004G9KT 39/16 A2991 RMK A01 T03940161  RH  027%=      5-min Rain = 0
KMES 141905Z 13005G13KT 39/16 A2991 RMK A01 T03930162  RH  027%=      5-min Rain = 0
KMES 141910Z 11007G13KT 40/15 A299 RMK A01 T03970154  RH  025%=      5-min Rain = 0
KMES 141915Z 07009G15KT 39/15 A299 RMK A01 T03930152  RH  025%=      5-min Rain = 0
KMES 141920Z 08007KT 39/15 A299 RMK A01 T03930149  RH  025%=      5-min Rain = 0
KMES 141925Z 10010KT 40/15 A299 RMK A01 T03950146  RH  024%=      5-min Rain = 0
KMES 141930Z 05007G12KT 39/14 A299 RMK A01 T03940143  RH  024%=      5-min Rain = 0
KMES 141935Z 08009KT 40/14 A299 RMK A01 T03960141  RH  023%=      5-min Rain = 0
KMES 141940Z 11009KT 40/14 A2989 RMK A01 T03970137  RH  022%=      5-min Rain = 0
KMES 141945Z 10009G14KT 40/14 A2989 RMK A01 T03990139  RH  023%=      5-min Rain = 0
KMES 141950Z 07009KT 40/14 A2989 RMK A01 T03990138  RH  022%=      5-min Rain = 0
KMES 141955Z 08009G14KT 40/14 A2988 RMK A01 T04020142  RH  023%=      5-min Rain = 0
KMES 142000Z 09010G15KT 40/15 A2988 RMK A01 T03990149  RH  024%=      5-min Rain = 0
KMES 142005Z 06011G16KT 40/14 A2988 RMK A01 T03990144  RH  023%=      5-min Rain = 0
KMES 142010Z 09010G16KT 40/15 A2988 RMK A01 T03980147  RH  024%=      5-min Rain = 0
KMES 142015Z 11008G16KT 40/15 A2988 RMK A01 T03970148  RH  024%=      5-min Rain = 0
KMES 142020Z 10009G14KT 40/15 A2988 RMK A01 T03970146  RH  024%=      5-min Rain = 0
KMES 142025Z 11008G14KT 40/14 A2987 RMK A01 T03980143  RH  023%=      5-min Rain = 0
KMES 142030Z 10009G15KT 40/15 A2987 RMK A01 T03980145  RH  024%=      5-min Rain = 0
KMES 142035Z 10010KT 39/14 A2987 RMK A01 T03940144  RH  024%=      5-min Rain = 0
KMES 142040Z 07010G15KT 39/14 A2987 RMK A01 T03910144  RH  024%=      5-min Rain = 0
KMES 142045Z 07010G15KT 39/14 A2988 RMK A01 T03870143  RH  025%=      5-min Rain = 0
KMES 142050Z 09007KT 38/14 A2988 RMK A01 T03840142  RH  025%=      5-min Rain = 0
KMES 142055Z 08008KT 38/14 A2988 RMK A01 T03830140  RH  025%=      5-min Rain = 0
KMES 142100Z 09009KT 38/14 A2987 RMK A01 T03820141  RH  025%=      5-min Rain = 0
KMES 142105Z 09009G14KT 38/14 A2987 RMK A01 T03810141  RH  025%=      5-min Rain = 0
KMES 142110Z 08008G13KT 38/14 A2987 RMK A01 T03800140  RH  025%=      5-min Rain = 0
KMES 142115Z 09011KT 38/14 A2987 RMK A01 T03770143  RH  026%=      5-min Rain = 0
KMES 142120Z 08010G15KT 37/15 A2987 RMK A01 T03740145  RH  027%=      5-min Rain = 0
KMES 142125Z 08009KT 37/15 A2986 RMK A01 T03720147  RH  028%=      5-min Rain = 0
KMES 142130Z 08010KT 37/15 A2986 RMK A01 T03720147  RH  028%=      5-min Rain = 0
KMES 142135Z 08008G13KT 37/15 A2987 RMK A01 T03700146  RH  028%=      5-min Rain = 0
KMES 142140Z 07009G14KT 37/15 A2987 RMK A01 T03690145  RH  028%=      5-min Rain = 0
KMES 142145Z 07009G14KT 37/15 A2987 RMK A01 T03680147  RH  028%=      5-min Rain = 0
KMES 142150Z 08009KT 37/15 A2987 RMK A01 T03670150  RH  029%=      5-min Rain = 0
KMES 142155Z 08008KT 37/15 A2987 RMK A01 T03650150  RH  029%=      5-min Rain = 0
KMES 142200Z 08009KT 36/15 A2987 RMK A01 T03640149  RH  029%=      5-min Rain = 0
KMES 142205Z 07008G13KT 36/15 A2987 RMK A01 T03640149  RH  029%=      5-min Rain = 0
KMES 142210Z 07007G13KT 36/15 A2987 RMK A01 T03630148  RH  029%=      5-min Rain = 0
KMES 142215Z 07006KT 36/15 A2987 RMK A01 T03610148  RH  029%=      5-min Rain = 0
KMES 142220Z 07007KT 36/15 A2987 RMK A01 T03610147  RH  029%=      5-min Rain = 0
KMES 142225Z 07006KT 36/15 A2987 RMK A01 T03600146  RH  029%=      5-min Rain = 0
KMES 142230Z 07007G12KT 36/14 A2987 RMK A01 T03590143  RH  029%=      5-min Rain = 0
KMES 142235Z 07006KT 36/14 A2987 RMK A01 T03590142  RH  029%=      5-min Rain = 0
KMES 142240Z 08005KT 36/14 A2987 RMK A01 T03580142  RH  029%=      5-min Rain = 0
KMES 142245Z 10005KT 36/14 A2986 RMK A01 T03570142  RH  029%=      5-min Rain = 0
KMES 142250Z 09006KT 36/14 A2986 RMK A01 T03570142  RH  029%=      5-min Rain = 0
KMES 142255Z 09006KT 36/14 A2986 RMK A01 T03570144  RH  029%=      5-min Rain = 0
KMES 142300Z 08005KT 36/15 A2986 RMK A01 T03560146  RH  030%=      5-min Rain = 0
KMES 142305Z 07005KT 36/15 A2987 RMK A01 T03560145  RH  030%=      5-min Rain = 0
KMES 142310Z 04005KT 36/14 A2988 RMK A01 T03570141  RH  029%=      5-min Rain = 0
KMES 142315Z 03004KT 36/14 A2988 RMK A01 T03570140  RH  029%=      5-min Rain = 0
KMES 142320Z 04004KT 36/14 A2988 RMK A01 T03570138  RH  028%=      5-min Rain = 0
KMES 142325Z 06002KT 36/14 A2988 RMK A01 T03570137  RH  028%=      5-min Rain = 0
KMES 142330Z 13001KT 36/14 A2988 RMK A01 T03570137  RH  028%=      5-min Rain = 0
KMES 142335Z 22003KT 36/14 A2989 RMK A01 T03550142  RH  029%=      5-min Rain = 0
KMES 142340Z 23001KT 35/14 A2988 RMK A01 T03520142  RH  030%=      5-min Rain = 0
KMES 142345Z 16001KT 35/14 A2988 RMK A01 T03510140  RH  029%=      5-min Rain = 0
KMES 142350Z 10002KT 35/14 A2988 RMK A01 T03510141  RH  030%=      5-min Rain = 0
KMES 142355Z 09004KT 35/14 A2988 RMK A01 T03490141  RH  030%=      5-min Rain = 0
KMES 150000Z 10004KT 35/14 A2987 RMK A01 T03480139  RH  030%=      5-min Rain = 0
KMES 150005Z 13003KT 35/14 A2987 RMK A01 T03470140  RH  030%=      5-min Rain = 0
KMES 150010Z 14004KT 35/14 A2987 RMK A01 T03460140  RH  030%=      5-min Rain = 0
KMES 150015Z 14004KT 35/14 A2987 RMK A01 T03450141  RH  031%=      5-min Rain = 0
KMES 150020Z 15004KT 34/14 A2987 RMK A01 T03440142  RH  031%=      5-min Rain = 0
KMES 150025Z 17004KT 34/14 A2987 RMK A01 T03420144  RH  032%=      5-min Rain = 0
KMES 150030Z 17002KT 34/14 A2987 RMK A01 T03390144  RH  032%=      5-min Rain = 0
KMES 150035Z 14002KT 34/14 A2988 RMK A01 T03380144  RH  033%=      5-min Rain = 0
KMES 150040Z 19002KT 34/15 A2988 RMK A01 T03380145  RH  033%=      5-min Rain = 0
KMES 150045Z 17001KT 34/15 A2989 RMK A01 T03370146  RH  033%=      5-min Rain = 0
KMES 150050Z 26001KT 34/15 A2989 RMK A01 T03360148  RH  034%=      5-min Rain = 0
KMES 150055Z 00000KT 34/15 A2989 RMK A01 T03350146  RH  034%=      5-min Rain = 0
KMES 150100Z 27001KT 33/15 A2989 RMK A01 T03340147  RH  034%=      5-min Rain = 0
KMES 150105Z 05001KT 33/15 A2989 RMK A01 T03320150  RH  035%=      5-min Rain = 0
KMES 150110Z 07003KT 33/15 A2989 RMK A01 T03300152  RH  036%=      5-min Rain = 0
KMES 150115Z 12002KT 33/15 A299 RMK A01 T03270153  RH  037%=      5-min Rain = 0
KMES 150120Z 15002KT 33/15 A299 RMK A01 T03250152  RH  037%=      5-min Rain = 0
KMES 150125Z 15002KT 33/15 A2989 RMK A01 T03260151  RH  037%=      5-min Rain = 0
KMES 150130Z 13002KT 33/15 A2989 RMK A01 T03250152  RH  037%=      5-min Rain = 0
KMES 150135Z 13004KT 32/15 A299 RMK A01 T03210152  RH  038%=      5-min Rain = 0
KMES 150140Z 15004KT 32/13 A2989 RMK A01 T03230131  RH  032%=      5-min Rain = 0
KMES 150145Z 14001KT 32/14 A2989 RMK A01 T03240136  RH  033%=      5-min Rain = 0
KMES 150150Z 34001KT 32/13 A2989 RMK A01 T03210128  RH  032%=      5-min Rain = 0
KMES 150155Z 00003KT 32/13 A2989 RMK A01 T03190129  RH  033%=      5-min Rain = 0
KMES 150200Z 36003KT 31/13 A2989 RMK A01 T03130132  RH  035%=      5-min Rain = 0
KMES 150205Z 03003KT 31/13 A2989 RMK A01 T03100129  RH  034%=      5-min Rain = 0
KMES 150210Z 24001KT 31/14 A2989 RMK A01 T03060138  RH  037%=      5-min Rain = 0
KMES 150215Z 10001KT 30/15 A2989 RMK A01 T03000149  RH  042%=      5-min Rain = 0
KMES 150220Z 15003KT 30/14 A2989 RMK A01 T02980140  RH  040%=      5-min Rain = 0
KMES 150225Z 17004KT 30/14 A299 RMK A01 T02980141  RH  040%=      5-min Rain = 0
KMES 150230Z 15004KT 30/13 A299 RMK A01 T03010127  RH  036%=      5-min Rain = 0
KMES 150235Z 12002KT 30/13 A299 RMK A01 T03000125  RH  035%=      5-min Rain = 0
KMES 150240Z 10002KT 30/12 A2991 RMK A01 T02970120  RH  035%=      5-min Rain = 0
KMES 150245Z 12003KT 30/12 A2991 RMK A01 T02950121  RH  036%=      5-min Rain = 0
KMES 150250Z 08000KT 29/12 A2992 RMK A01 T02930121  RH  036%=      5-min Rain = 0
KMES 150255Z 22002KT 29/13 A2992 RMK A01 T02910130  RH  039%=      5-min Rain = 0
KMES 150300Z 27000KT 29/13 A2993 RMK A01 T02880130  RH  039%=      5-min Rain = 0
KMES 150305Z 26001KT 29/13 A2993 RMK A01 T02860132  RH  040%=      5-min Rain = 0
KMES 150310Z 24002KT 29/13 A2993 RMK A01 T02860131  RH  040%=      5-min Rain = 0
KMES 150315Z 24002KT 29/13 A2993 RMK A01 T02860130  RH  040%=      5-min Rain = 0
KMES 150320Z 25003KT 29/13 A2993 RMK A01 T02860128  RH  039%=      5-min Rain = 0
KMES 150325Z 25003KT 29/12 A2993 RMK A01 T02890119  RH  036%=      5-min Rain = 0
KMES 150330Z 29002KT 29/12 A2994 RMK A01 T02880124  RH  038%=      5-min Rain = 0
KMES 150335Z 32003KT 28/13 A2994 RMK A01 T02800127  RH  040%=      5-min Rain = 0
KMES 150340Z 34004KT 27/13 A2994 RMK A01 T02710127  RH  043%=      5-min Rain = 0
KMES 150345Z 33005KT 27/13 A2995 RMK A01 T02660134  RH  046%=      5-min Rain = 0
KMES 150350Z 33006KT 27/13 A2995 RMK A01 T02700134  RH  045%=      5-min Rain = 0
KMES 150355Z 33005KT 28/14 A2996 RMK A01 T02750136  RH  044%=      5-min Rain = 0
KMES 150400Z 33003KT 27/14 A2996 RMK A01 T02700137  RH  046%=      5-min Rain = 0
KMES 150405Z 34003KT 27/14 A2996 RMK A01 T02660137  RH  047%=      5-min Rain = 0
KMES 150410Z 34003KT 27/14 A2996 RMK A01 T02650140  RH  048%=      5-min Rain = 0
KMES 150415Z 33003KT 27/14 A2996 RMK A01 T02670141  RH  048%=      5-min Rain = 0
KMES 150420Z 33004KT 27/14 A2996 RMK A01 T02680141  RH  048%=      5-min Rain = 0
KMES 150425Z 34004KT 27/14 A2996 RMK A01 T02680141  RH  048%=      5-min Rain = 0
KMES 150430Z 33003KT 27/14 A2996 RMK A01 T02670141  RH  048%=      5-min Rain = 0
KMES 150435Z 34004KT 27/14 A2996 RMK A01 T02680141  RH  047%=      5-min Rain = 0
KMES 150440Z 32004KT 27/14 A2996 RMK A01 T02690140  RH  047%=      5-min Rain = 0
KMES 150445Z 31004KT 27/14 A2996 RMK A01 T02700141  RH  047%=      5-min Rain = 0
KMES 150450Z 30005KT 27/14 A2996 RMK A01 T02680140  RH  047%=      5-min Rain = 0
KMES 150455Z 31006KT 27/14 A2996 RMK A01 T02680135  RH  046%=      5-min Rain = 0

Page generated in 0.0091 seconds.